sensor_id;sensor_type;location;lat;lon;timestamp;temperature;humidity
17762;DHT22;9005;48.838;10.112;2023-08-06T00:00:24;13.40;99.90
17762;DHT22;9005;48.838;10.112;2023-08-06T00:02:51;13.50;99.90
17762;DHT22;9005;48.838;10.112;2023-08-06T00:05:18;13.50;99.90
17762;DHT22;9005;48.838;10.112;2023-08-06T00:07:46;13.60;99.90
17762;DHT22;9005;48.838;10.112;2023-08-06T00:10:13;13.60;99.90
17762;DHT22;9005;48.838;10.112;2023-08-06T00:12:41;13.60;99.90
17762;DHT22;9005;48.838;10.112;2023-08-06T00:15:09;13.60;99.90
17762;DHT22;9005;48.838;10.112;2023-08-06T00:17:36;13.60;99.90
17762;DHT22;9005;48.838;10.112;2023-08-06T00:20:04;13.70;99.90
17762;DHT22;9005;48.838;10.112;2023-08-06T00:22:31;13.70;99.90
17762;DHT22;9005;48.838;10.112;2023-08-06T00:24:58;13.70;99.90
17762;DHT22;9005;48.838;10.112;2023-08-06T00:27:25;13.70;99.90
17762;DHT22;9005;48.838;10.112;2023-08-06T00:29:53;13.70;99.90
17762;DHT22;9005;48.838;10.112;2023-08-06T00:32:20;13.80;99.90
17762;DHT22;9005;48.838;10.112;2023-08-06T00:34:47;13.80;99.90
17762;DHT22;9005;48.838;10.112;2023-08-06T00:37:15;13.80;99.90
17762;DHT22;9005;48.838;10.112;2023-08-06T00:39:42;15.10;99.90
17762;DHT22;9005;48.838;10.112;2023-08-06T00:42:09;13.80;99.90
17762;DHT22;9005;48.838;10.112;2023-08-06T00:44:36;13.80;99.90
17762;DHT22;9005;48.838;10.112;2023-08-06T00:47:05;13.80;99.90
17762;DHT22;9005;48.838;10.112;2023-08-06T00:49:32;13.80;99.90
17762;DHT22;9005;48.838;10.112;2023-08-06T00:51:59;13.80;99.90
17762;DHT22;9005;48.838;10.112;2023-08-06T00:54:27;13.80;99.90
17762;DHT22;9005;48.838;10.112;2023-08-06T00:56:54;13.80;99.90
17762;DHT22;9005;48.838;10.112;2023-08-06T00:59:23;13.80;99.90
17762;DHT22;9005;48.838;10.112;2023-08-06T01:01:50;13.80;99.90
17762;DHT22;9005;48.838;10.112;2023-08-06T01:04:19;13.80;99.90
17762;DHT22;9005;48.838;10.112;2023-08-06T01:06:48;13.80;99.90
17762;DHT22;9005;48.838;10.112;2023-08-06T01:09:25;13.30;99.90
17762;DHT22;9005;48.838;10.112;2023-08-06T01:11:59;13.80;99.90
17762;DHT22;9005;48.838;10.112;2023-08-06T01:14:30;13.70;99.90
17762;DHT22;9005;48.838;10.112;2023-08-06T01:16:58;13.70;99.90
17762;DHT22;9005;48.838;10.112;2023-08-06T01:19:27;13.70;99.90
17762;DHT22;9005;48.838;10.112;2023-08-06T01:21:55;13.60;99.90
17762;DHT22;9005;48.838;10.112;2023-08-06T01:24:22;13.70;99.90
17762;DHT22;9005;48.838;10.112;2023-08-06T01:26:55;13.70;99.90
17762;DHT22;9005;48.838;10.112;2023-08-06T01:29:28;13.60;99.90
17762;DHT22;9005;48.838;10.112;2023-08-06T01:31:58;13.60;99.90
17762;DHT22;9005;48.838;10.112;2023-08-06T01:34:28;13.70;99.90
17762;DHT22;9005;48.838;10.112;2023-08-06T01:37:00;13.70;99.90
17762;DHT22;9005;48.838;10.112;2023-08-06T01:39:27;13.70;99.90
17762;DHT22;9005;48.838;10.112;2023-08-06T01:41:54;13.40;99.90
17762;DHT22;9005;48.838;10.112;2023-08-06T01:44:21;13.60;99.90
17762;DHT22;9005;48.838;10.112;2023-08-06T01:46:47;13.60;99.90
17762;DHT22;9005;48.838;10.112;2023-08-06T01:49:14;13.60;99.90
17762;DHT22;9005;48.838;10.112;2023-08-06T01:51:41;13.60;99.90
17762;DHT22;9005;48.838;10.112;2023-08-06T01:54:09;13.60;99.90
17762;DHT22;9005;48.838;10.112;2023-08-06T01:56:36;13.50;99.90
17762;DHT22;9005;48.838;10.112;2023-08-06T01:59:02;13.50;99.90
17762;DHT22;9005;48.838;10.112;2023-08-06T02:01:29;13.50;99.90
17762;DHT22;9005;48.838;10.112;2023-08-06T02:03:56;13.50;99.90
17762;DHT22;9005;48.838;10.112;2023-08-06T02:06:23;13.50;99.90
17762;DHT22;9005;48.838;10.112;2023-08-06T02:08:50;13.50;99.90
17762;DHT22;9005;48.838;10.112;2023-08-06T02:11:18;13.50;99.90
17762;DHT22;9005;48.838;10.112;2023-08-06T02:13:45;13.50;99.90
17762;DHT22;9005;48.838;10.112;2023-08-06T02:16:12;13.50;99.90
17762;DHT22;9005;48.838;10.112;2023-08-06T02:18:39;13.50;99.90
17762;DHT22;9005;48.838;10.112;2023-08-06T02:21:06;13.50;99.90
17762;DHT22;9005;48.838;10.112;2023-08-06T02:23:32;13.50;99.90
17762;DHT22;9005;48.838;10.112;2023-08-06T02:26:00;13.50;99.90
17762;DHT22;9005;48.838;10.112;2023-08-06T02:28:28;13.50;99.90
17762;DHT22;9005;48.838;10.112;2023-08-06T02:30:55;13.40;99.90
17762;DHT22;9005;48.838;10.112;2023-08-06T02:33:22;13.40;99.90
17762;DHT22;9005;48.838;10.112;2023-08-06T02:35:48;13.40;99.90
17762;DHT22;9005;48.838;10.112;2023-08-06T02:38:15;13.40;99.90
17762;DHT22;9005;48.838;10.112;2023-08-06T02:40:45;13.40;99.90
17762;DHT22;9005;48.838;10.112;2023-08-06T02:43:12;13.30;99.90
17762;DHT22;9005;48.838;10.112;2023-08-06T02:45:41;13.30;99.90
17762;DHT22;9005;48.838;10.112;2023-08-06T02:48:08;13.30;99.90
17762;DHT22;9005;48.838;10.112;2023-08-06T02:50:38;13.30;99.90
17762;DHT22;9005;48.838;10.112;2023-08-06T02:53:05;13.30;99.90
17762;DHT22;9005;48.838;10.112;2023-08-06T02:55:33;13.20;99.90
17762;DHT22;9005;48.838;10.112;2023-08-06T02:58:00;13.10;99.90
17762;DHT22;9005;48.838;10.112;2023-08-06T03:00:27;13.10;99.90
17762;DHT22;9005;48.838;10.112;2023-08-06T03:02:55;13.10;99.90
17762;DHT22;9005;48.838;10.112;2023-08-06T03:05:22;13.10;99.90
17762;DHT22;9005;48.838;10.112;2023-08-06T03:07:48;13.10;99.90
17762;DHT22;9005;48.838;10.112;2023-08-06T03:10:15;13.20;99.90
17762;DHT22;9005;48.838;10.112;2023-08-06T03:12:42;13.20;99.90
17762;DHT22;9005;48.838;10.112;2023-08-06T03:15:09;13.30;99.90
17762;DHT22;9005;48.838;10.112;2023-08-06T03:17:36;13.30;99.90
17762;DHT22;9005;48.838;10.112;2023-08-06T03:20:06;13.30;99.90
17762;DHT22;9005;48.838;10.112;2023-08-06T03:22:33;13.30;99.90
17762;DHT22;9005;48.838;10.112;2023-08-06T03:24:59;13.20;99.90
17762;DHT22;9005;48.838;10.112;2023-08-06T03:27:26;13.20;99.90
17762;DHT22;9005;48.838;10.112;2023-08-06T03:29:53;13.20;99.90
17762;DHT22;9005;48.838;10.112;2023-08-06T03:32:20;13.20;99.90
17762;DHT22;9005;48.838;10.112;2023-08-06T03:34:46;13.20;99.90
17762;DHT22;9005;48.838;10.112;2023-08-06T03:37:14;13.20;99.90
17762;DHT22;9005;48.838;10.112;2023-08-06T03:39:41;13.50;99.90
17762;DHT22;9005;48.838;10.112;2023-08-06T03:42:08;13.20;99.90
17762;DHT22;9005;48.838;10.112;2023-08-06T03:44:35;13.10;99.90
17762;DHT22;9005;48.838;10.112;2023-08-06T03:47:01;13.10;99.90
17762;DHT22;9005;48.838;10.112;2023-08-06T03:49:28;13.10;99.90
17762;DHT22;9005;48.838;10.112;2023-08-06T03:51:55;13.10;99.90
17762;DHT22;9005;48.838;10.112;2023-08-06T03:54:23;13.00;99.90
17762;DHT22;9005;48.838;10.112;2023-08-06T03:56:50;13.10;99.90
17762;DHT22;9005;48.838;10.112;2023-08-06T03:59:16;13.10;99.90
17762;DHT22;9005;48.838;10.112;2023-08-06T04:01:43;13.10;99.90
17762;DHT22;9005;48.838;10.112;2023-08-06T04:04:10;13.20;99.90
17762;DHT22;9005;48.838;10.112;2023-08-06T04:06:37;13.20;99.90
17762;DHT22;9005;48.838;10.112;2023-08-06T04:09:03;13.10;99.90
17762;DHT22;9005;48.838;10.112;2023-08-06T04:11:31;13.10;99.90
17762;DHT22;9005;48.838;10.112;2023-08-06T04:13:58;13.10;99.90
17762;DHT22;9005;48.838;10.112;2023-08-06T04:16:25;13.10;99.90
17762;DHT22;9005;48.838;10.112;2023-08-06T04:18:52;13.00;99.90
17762;DHT22;9005;48.838;10.112;2023-08-06T04:21:19;13.00;99.90
17762;DHT22;9005;48.838;10.112;2023-08-06T04:23:45;12.90;99.90
17762;DHT22;9005;48.838;10.112;2023-08-06T04:26:12;12.90;99.90
17762;DHT22;9005;48.838;10.112;2023-08-06T04:28:40;12.90;99.90
17762;DHT22;9005;48.838;10.112;2023-08-06T04:31:07;13.00;99.90
17762;DHT22;9005;48.838;10.112;2023-08-06T04:33:34;13.00;99.90
17762;DHT22;9005;48.838;10.112;2023-08-06T04:36:01;13.10;99.90
17762;DHT22;9005;48.838;10.112;2023-08-06T04:38:27;13.10;99.90
17762;DHT22;9005;48.838;10.112;2023-08-06T04:40:54;13.10;99.90
17762;DHT22;9005;48.838;10.112;2023-08-06T04:43:21;13.10;99.90
17762;DHT22;9005;48.838;10.112;2023-08-06T04:45:50;13.10;99.90
17762;DHT22;9005;48.838;10.112;2023-08-06T04:48:17;13.20;99.90
17762;DHT22;9005;48.838;10.112;2023-08-06T04:50:44;13.20;99.90
17762;DHT22;9005;48.838;10.112;2023-08-06T04:53:11;13.20;99.90
17762;DHT22;9005;48.838;10.112;2023-08-06T04:55:38;13.00;99.90
17762;DHT22;9005;48.838;10.112;2023-08-06T04:58:05;12.90;99.90
17762;DHT22;9005;48.838;10.112;2023-08-06T05:00:32;12.90;99.90
17762;DHT22;9005;48.838;10.112;2023-08-06T05:03:01;13.00;99.90
17762;DHT22;9005;48.838;10.112;2023-08-06T05:05:28;13.10;99.90
17762;DHT22;9005;48.838;10.112;2023-08-06T05:07:56;13.20;99.90
17762;DHT22;9005;48.838;10.112;2023-08-06T05:10:24;13.20;99.90
17762;DHT22;9005;48.838;10.112;2023-08-06T05:12:51;13.30;99.90
17762;DHT22;9005;48.838;10.112;2023-08-06T05:15:18;13.30;99.90
17762;DHT22;9005;48.838;10.112;2023-08-06T05:17:45;13.30;99.90
17762;DHT22;9005;48.838;10.112;2023-08-06T05:20:13;13.30;99.90
17762;DHT22;9005;48.838;10.112;2023-08-06T05:22:40;13.10;99.90
17762;DHT22;9005;48.838;10.112;2023-08-06T05:25:07;13.00;99.90
17762;DHT22;9005;48.838;10.112;2023-08-06T05:27:34;13.00;99.90
17762;DHT22;9005;48.838;10.112;2023-08-06T05:30:01;13.10;99.90
17762;DHT22;9005;48.838;10.112;2023-08-06T05:32:28;13.10;99.90
17762;DHT22;9005;48.838;10.112;2023-08-06T05:34:54;13.10;99.90
17762;DHT22;9005;48.838;10.112;2023-08-06T05:37:22;13.10;99.90
17762;DHT22;9005;48.838;10.112;2023-08-06T05:39:49;13.10;99.90
17762;DHT22;9005;48.838;10.112;2023-08-06T05:42:16;13.00;99.90
17762;DHT22;9005;48.838;10.112;2023-08-06T05:44:43;13.10;99.90
17762;DHT22;9005;48.838;10.112;2023-08-06T05:47:09;13.10;99.90
17762;DHT22;9005;48.838;10.112;2023-08-06T05:49:36;13.10;99.90
17762;DHT22;9005;48.838;10.112;2023-08-06T05:52:04;13.10;99.90
17762;DHT22;9005;48.838;10.112;2023-08-06T05:54:35;13.00;99.90
17762;DHT22;9005;48.838;10.112;2023-08-06T05:57:02;12.90;99.90
17762;DHT22;9005;48.838;10.112;2023-08-06T05:59:29;12.90;99.90
17762;DHT22;9005;48.838;10.112;2023-08-06T06:01:55;12.90;99.90
17762;DHT22;9005;48.838;10.112;2023-08-06T06:04:22;12.80;99.90
17762;DHT22;9005;48.838;10.112;2023-08-06T06:06:49;12.80;99.90
17762;DHT22;9005;48.838;10.112;2023-08-06T06:09:16;12.90;99.90
17762;DHT22;9005;48.838;10.112;2023-08-06T06:11:44;12.90;99.90
17762;DHT22;9005;48.838;10.112;2023-08-06T06:14:11;13.00;99.90
17762;DHT22;9005;48.838;10.112;2023-08-06T06:16:37;13.00;99.90
17762;DHT22;9005;48.838;10.112;2023-08-06T06:19:04;12.90;99.90
17762;DHT22;9005;48.838;10.112;2023-08-06T06:21:31;13.30;99.90
17762;DHT22;9005;48.838;10.112;2023-08-06T06:23:58;12.70;99.90
17762;DHT22;9005;48.838;10.112;2023-08-06T06:26:24;12.70;99.90
17762;DHT22;9005;48.838;10.112;2023-08-06T06:28:53;12.70;99.90
17762;DHT22;9005;48.838;10.112;2023-08-06T06:31:19;12.60;99.90
17762;DHT22;9005;48.838;10.112;2023-08-06T06:33:46;12.60;99.90
17762;DHT22;9005;48.838;10.112;2023-08-06T06:36:13;12.70;99.90
17762;DHT22;9005;48.838;10.112;2023-08-06T06:38:40;12.70;99.90
17762;DHT22;9005;48.838;10.112;2023-08-06T06:41:06;12.70;99.90
17762;DHT22;9005;48.838;10.112;2023-08-06T06:43:33;12.70;99.90
17762;DHT22;9005;48.838;10.112;2023-08-06T06:46:01;12.70;99.90
17762;DHT22;9005;48.838;10.112;2023-08-06T06:48:29;12.70;99.90
17762;DHT22;9005;48.838;10.112;2023-08-06T06:50:56;12.70;99.90
17762;DHT22;9005;48.838;10.112;2023-08-06T06:53:23;12.80;99.90
17762;DHT22;9005;48.838;10.112;2023-08-06T06:55:53;12.90;99.90
17762;DHT22;9005;48.838;10.112;2023-08-06T06:58:19;13.00;99.90
17762;DHT22;9005;48.838;10.112;2023-08-06T07:00:47;13.00;99.90
17762;DHT22;9005;48.838;10.112;2023-08-06T07:03:15;13.00;99.90
17762;DHT22;9005;48.838;10.112;2023-08-06T07:05:42;13.00;99.90
17762;DHT22;9005;48.838;10.112;2023-08-06T07:08:09;12.90;99.90
17762;DHT22;9005;48.838;10.112;2023-08-06T07:10:36;12.90;99.90
17762;DHT22;9005;48.838;10.112;2023-08-06T07:13:03;12.90;99.90
17762;DHT22;9005;48.838;10.112;2023-08-06T07:15:30;12.90;99.90
17762;DHT22;9005;48.838;10.112;2023-08-06T07:17:57;13.00;99.90
17762;DHT22;9005;48.838;10.112;2023-08-06T07:20:25;13.10;99.90
17762;DHT22;9005;48.838;10.112;2023-08-06T07:22:54;13.10;99.90
17762;DHT22;9005;48.838;10.112;2023-08-06T07:25:21;13.20;99.90
17762;DHT22;9005;48.838;10.112;2023-08-06T07:27:48;13.20;99.90
17762;DHT22;9005;48.838;10.112;2023-08-06T07:30:15;13.10;99.90
17762;DHT22;9005;48.838;10.112;2023-08-06T07:32:41;13.10;99.90
17762;DHT22;9005;48.838;10.112;2023-08-06T07:35:08;13.00;99.90
17762;DHT22;9005;48.838;10.112;2023-08-06T07:37:39;13.20;99.90
17762;DHT22;9005;48.838;10.112;2023-08-06T07:40:07;13.10;99.90
17762;DHT22;9005;48.838;10.112;2023-08-06T07:42:34;13.10;99.90
17762;DHT22;9005;48.838;10.112;2023-08-06T07:45:02;13.10;99.90
17762;DHT22;9005;48.838;10.112;2023-08-06T07:47:29;13.30;99.90
17762;DHT22;9005;48.838;10.112;2023-08-06T07:49:55;13.30;99.90
17762;DHT22;9005;48.838;10.112;2023-08-06T07:52:22;13.20;99.90
17762;DHT22;9005;48.838;10.112;2023-08-06T07:54:50;13.10;99.90
17762;DHT22;9005;48.838;10.112;2023-08-06T07:57:17;13.00;99.90
17762;DHT22;9005;48.838;10.112;2023-08-06T07:59:44;13.00;99.90
17762;DHT22;9005;48.838;10.112;2023-08-06T08:02:11;13.10;99.90
17762;DHT22;9005;48.838;10.112;2023-08-06T08:04:37;13.10;99.90
17762;DHT22;9005;48.838;10.112;2023-08-06T08:07:05;13.20;99.90
17762;DHT22;9005;48.838;10.112;2023-08-06T08:09:31;13.30;99.90
17762;DHT22;9005;48.838;10.112;2023-08-06T08:11:59;13.30;99.90
17762;DHT22;9005;48.838;10.112;2023-08-06T08:14:28;13.20;99.90
17762;DHT22;9005;48.838;10.112;2023-08-06T08:17:00;13.30;99.90
17762;DHT22;9005;48.838;10.112;2023-08-06T08:19:27;13.30;99.90
17762;DHT22;9005;48.838;10.112;2023-08-06T08:21:54;13.30;99.90
17762;DHT22;9005;48.838;10.112;2023-08-06T08:24:21;13.20;99.90
17762;DHT22;9005;48.838;10.112;2023-08-06T08:26:49;13.20;99.90
17762;DHT22;9005;48.838;10.112;2023-08-06T08:29:17;13.10;99.90
17762;DHT22;9005;48.838;10.112;2023-08-06T08:31:44;13.10;99.90
17762;DHT22;9005;48.838;10.112;2023-08-06T08:34:11;13.10;99.90
17762;DHT22;9005;48.838;10.112;2023-08-06T08:36:37;13.10;99.90
17762;DHT22;9005;48.838;10.112;2023-08-06T08:39:04;13.20;99.90
17762;DHT22;9005;48.838;10.112;2023-08-06T08:41:31;13.20;99.90
17762;DHT22;9005;48.838;10.112;2023-08-06T08:44:00;13.20;99.90
17762;DHT22;9005;48.838;10.112;2023-08-06T08:46:29;13.10;99.90
17762;DHT22;9005;48.838;10.112;2023-08-06T08:48:58;13.20;99.90
17762;DHT22;9005;48.838;10.112;2023-08-06T08:51:26;13.30;99.90
17762;DHT22;9005;48.838;10.112;2023-08-06T08:53:54;13.30;99.90
17762;DHT22;9005;48.838;10.112;2023-08-06T08:56:23;13.40;99.90
17762;DHT22;9005;48.838;10.112;2023-08-06T08:58:49;13.40;99.90
17762;DHT22;9005;48.838;10.112;2023-08-06T09:01:19;13.40;99.90
17762;DHT22;9005;48.838;10.112;2023-08-06T09:03:48;13.50;99.90
17762;DHT22;9005;48.838;10.112;2023-08-06T09:06:17;13.50;99.90
17762;DHT22;9005;48.838;10.112;2023-08-06T09:08:50;13.60;99.90
17762;DHT22;9005;48.838;10.112;2023-08-06T09:11:19;13.60;99.90
17762;DHT22;9005;48.838;10.112;2023-08-06T09:13:47;13.70;99.90
17762;DHT22;9005;48.838;10.112;2023-08-06T09:16:14;13.70;99.90
17762;DHT22;9005;48.838;10.112;2023-08-06T09:18:41;13.70;99.90
17762;DHT22;9005;48.838;10.112;2023-08-06T09:21:13;13.70;99.90
17762;DHT22;9005;48.838;10.112;2023-08-06T09:23:40;13.80;99.90
17762;DHT22;9005;48.838;10.112;2023-08-06T09:26:07;13.70;99.90
17762;DHT22;9005;48.838;10.112;2023-08-06T09:28:38;13.70;99.90
17762;DHT22;9005;48.838;10.112;2023-08-06T09:31:05;13.60;99.90
17762;DHT22;9005;48.838;10.112;2023-08-06T09:33:32;13.50;99.90
17762;DHT22;9005;48.838;10.112;2023-08-06T09:36:08;13.60;99.90
17762;DHT22;9005;48.838;10.112;2023-08-06T09:38:38;13.70;99.90
17762;DHT22;9005;48.838;10.112;2023-08-06T09:41:05;13.90;99.90
17762;DHT22;9005;48.838;10.112;2023-08-06T09:43:40;14.10;99.90
17762;DHT22;9005;48.838;10.112;2023-08-06T09:46:11;14.20;99.90
17762;DHT22;9005;48.838;10.112;2023-08-06T09:48:39;14.20;99.90
17762;DHT22;9005;48.838;10.112;2023-08-06T09:51:09;14.00;99.90
17762;DHT22;9005;48.838;10.112;2023-08-06T09:53:37;13.80;99.90
17762;DHT22;9005;48.838;10.112;2023-08-06T09:56:05;13.70;99.90
17762;DHT22;9005;48.838;10.112;2023-08-06T09:58:32;13.70;99.90
17762;DHT22;9005;48.838;10.112;2023-08-06T10:01:00;13.60;99.90
17762;DHT22;9005;48.838;10.112;2023-08-06T10:03:29;13.60;99.90
17762;DHT22;9005;48.838;10.112;2023-08-06T10:05:58;14.90;99.90
17762;DHT22;9005;48.838;10.112;2023-08-06T10:08:28;13.90;99.90
17762;DHT22;9005;48.838;10.112;2023-08-06T10:10:55;14.20;99.90
17762;DHT22;9005;48.838;10.112;2023-08-06T10:13:23;14.40;1.00
17762;DHT22;9005;48.838;10.112;2023-08-06T10:15:50;14.50;99.90
17762;DHT22;9005;48.838;10.112;2023-08-06T10:18:19;14.50;99.90
17762;DHT22;9005;48.838;10.112;2023-08-06T10:20:48;14.50;99.90
17762;DHT22;9005;48.838;10.112;2023-08-06T10:23:14;14.60;99.90
17762;DHT22;9005;48.838;10.112;2023-08-06T10:25:44;14.40;99.90
17762;DHT22;9005;48.838;10.112;2023-08-06T10:28:21;14.10;99.90
17762;DHT22;9005;48.838;10.112;2023-08-06T10:30:48;13.80;99.90
17762;DHT22;9005;48.838;10.112;2023-08-06T10:33:15;13.70;99.90
17762;DHT22;9005;48.838;10.112;2023-08-06T10:35:43;13.70;99.90
17762;DHT22;9005;48.838;10.112;2023-08-06T10:38:11;13.70;99.90
17762;DHT22;9005;48.838;10.112;2023-08-06T10:40:40;13.70;99.90
17762;DHT22;9005;48.838;10.112;2023-08-06T10:43:25;13.60;99.90
17762;DHT22;9005;48.838;10.112;2023-08-06T10:45:52;13.70;99.90
17762;DHT22;9005;48.838;10.112;2023-08-06T10:48:29;13.90;99.90
17762;DHT22;9005;48.838;10.112;2023-08-06T10:50:56;13.90;99.90
17762;DHT22;9005;48.838;10.112;2023-08-06T10:53:23;14.10;99.90
17762;DHT22;9005;48.838;10.112;2023-08-06T10:55:50;14.00;99.90
17762;DHT22;9005;48.838;10.112;2023-08-06T10:58:18;13.80;99.90
17762;DHT22;9005;48.838;10.112;2023-08-06T11:00:46;13.60;99.90
17762;DHT22;9005;48.838;10.112;2023-08-06T11:03:12;13.50;99.90
17762;DHT22;9005;48.838;10.112;2023-08-06T11:05:39;13.50;99.90
17762;DHT22;9005;48.838;10.112;2023-08-06T11:08:06;13.60;99.90
17762;DHT22;9005;48.838;10.112;2023-08-06T11:10:33;13.40;99.90
17762;DHT22;9005;48.838;10.112;2023-08-06T11:13:01;13.70;99.90
17762;DHT22;9005;48.838;10.112;2023-08-06T11:15:30;13.40;99.90
17762;DHT22;9005;48.838;10.112;2023-08-06T11:17:58;13.30;99.90
17762;DHT22;9005;48.838;10.112;2023-08-06T11:20:25;13.20;99.90
17762;DHT22;9005;48.838;10.112;2023-08-06T11:22:51;13.30;99.90
17762;DHT22;9005;48.838;10.112;2023-08-06T11:25:20;13.00;99.90
17762;DHT22;9005;48.838;10.112;2023-08-06T11:27:47;13.00;99.90
17762;DHT22;9005;48.838;10.112;2023-08-06T11:30:14;13.00;99.90
17762;DHT22;9005;48.838;10.112;2023-08-06T11:32:48;13.00;99.90
17762;DHT22;9005;48.838;10.112;2023-08-06T11:35:15;13.10;99.90
17762;DHT22;9005;48.838;10.112;2023-08-06T11:37:44;13.20;99.90
17762;DHT22;9005;48.838;10.112;2023-08-06T11:40:11;13.00;99.90
17762;DHT22;9005;48.838;10.112;2023-08-06T11:42:38;13.50;99.90
17762;DHT22;9005;48.838;10.112;2023-08-06T11:45:05;13.70;99.90
17762;DHT22;9005;48.838;10.112;2023-08-06T11:47:38;13.80;99.90
17762;DHT22;9005;48.838;10.112;2023-08-06T11:50:07;13.60;99.90
17762;DHT22;9005;48.838;10.112;2023-08-06T11:52:33;13.30;99.90
17762;DHT22;9005;48.838;10.112;2023-08-06T11:55:01;13.30;99.90
17762;DHT22;9005;48.838;10.112;2023-08-06T11:57:32;13.30;99.90
17762;DHT22;9005;48.838;10.112;2023-08-06T12:00:02;13.30;99.90
17762;DHT22;9005;48.838;10.112;2023-08-06T12:02:31;13.30;99.90
17762;DHT22;9005;48.838;10.112;2023-08-06T12:05:03;13.30;99.90
17762;DHT22;9005;48.838;10.112;2023-08-06T12:07:33;13.30;99.90
17762;DHT22;9005;48.838;10.112;2023-08-06T12:10:03;13.20;99.90
17762;DHT22;9005;48.838;10.112;2023-08-06T12:12:30;13.10;99.90
17762;DHT22;9005;48.838;10.112;2023-08-06T12:14:57;13.00;99.90
17762;DHT22;9005;48.838;10.112;2023-08-06T12:17:24;13.00;99.90
17762;DHT22;9005;48.838;10.112;2023-08-06T12:19:51;13.20;99.90
17762;DHT22;9005;48.838;10.112;2023-08-06T12:22:18;13.20;99.90
17762;DHT22;9005;48.838;10.112;2023-08-06T12:24:47;13.40;99.90
17762;DHT22;9005;48.838;10.112;2023-08-06T12:27:14;13.40;99.90
17762;DHT22;9005;48.838;10.112;2023-08-06T12:29:42;13.40;99.90
17762;DHT22;9005;48.838;10.112;2023-08-06T12:32:09;13.20;99.90
17762;DHT22;9005;48.838;10.112;2023-08-06T12:34:37;13.10;99.90
17762;DHT22;9005;48.838;10.112;2023-08-06T12:37:04;13.10;99.90
17762;DHT22;9005;48.838;10.112;2023-08-06T12:39:31;13.10;99.90
17762;DHT22;9005;48.838;10.112;2023-08-06T12:42:00;13.20;99.90
17762;DHT22;9005;48.838;10.112;2023-08-06T12:44:27;13.30;99.90
17762;DHT22;9005;48.838;10.112;2023-08-06T12:46:54;13.30;99.90
17762;DHT22;9005;48.838;10.112;2023-08-06T12:49:21;13.00;99.90
17762;DHT22;9005;48.838;10.112;2023-08-06T12:51:48;12.90;99.90
17762;DHT22;9005;48.838;10.112;2023-08-06T12:54:14;12.80;99.90
17762;DHT22;9005;48.838;10.112;2023-08-06T12:56:40;12.80;99.90
17762;DHT22;9005;48.838;10.112;2023-08-06T12:59:09;12.80;99.90
17762;DHT22;9005;48.838;10.112;2023-08-06T13:01:37;12.80;99.90
17762;DHT22;9005;48.838;10.112;2023-08-06T13:04:04;12.70;99.90
17762;DHT22;9005;48.838;10.112;2023-08-06T13:06:31;12.60;99.90
17762;DHT22;9005;48.838;10.112;2023-08-06T13:09:01;12.60;99.90
17762;DHT22;9005;48.838;10.112;2023-08-06T13:11:28;12.60;99.90
17762;DHT22;9005;48.838;10.112;2023-08-06T13:13:56;12.60;99.90
17762;DHT22;9005;48.838;10.112;2023-08-06T13:16:24;12.50;99.90
17762;DHT22;9005;48.838;10.112;2023-08-06T13:18:51;12.50;99.90
17762;DHT22;9005;48.838;10.112;2023-08-06T13:21:18;12.50;99.90
17762;DHT22;9005;48.838;10.112;2023-08-06T13:23:45;12.50;99.90
17762;DHT22;9005;48.838;10.112;2023-08-06T13:26:13;12.50;99.90
17762;DHT22;9005;48.838;10.112;2023-08-06T13:28:41;12.40;99.90
17762;DHT22;9005;48.838;10.112;2023-08-06T13:31:08;12.40;99.90
17762;DHT22;9005;48.838;10.112;2023-08-06T13:33:36;12.50;99.90
17762;DHT22;9005;48.838;10.112;2023-08-06T13:36:03;12.50;99.90
17762;DHT22;9005;48.838;10.112;2023-08-06T13:38:29;12.50;99.90
17762;DHT22;9005;48.838;10.112;2023-08-06T13:40:56;12.40;99.90
17762;DHT22;9005;48.838;10.112;2023-08-06T13:43:24;12.30;99.90
17762;DHT22;9005;48.838;10.112;2023-08-06T13:45:51;12.30;99.90
17762;DHT22;9005;48.838;10.112;2023-08-06T13:48:18;12.40;99.90
17762;DHT22;9005;48.838;10.112;2023-08-06T13:50:46;12.40;99.90
17762;DHT22;9005;48.838;10.112;2023-08-06T13:53:12;12.40;99.90
17762;DHT22;9005;48.838;10.112;2023-08-06T13:55:39;12.40;99.90
17762;DHT22;9005;48.838;10.112;2023-08-06T13:58:06;12.30;99.90
17762;DHT22;9005;48.838;10.112;2023-08-06T14:00:35;12.30;99.90
17762;DHT22;9005;48.838;10.112;2023-08-06T14:03:01;12.20;99.90
17762;DHT22;9005;48.838;10.112;2023-08-06T14:05:28;12.20;99.90
17762;DHT22;9005;48.838;10.112;2023-08-06T14:07:56;12.20;99.90
17762;DHT22;9005;48.838;10.112;2023-08-06T14:10:23;12.20;99.90
17762;DHT22;9005;48.838;10.112;2023-08-06T14:12:50;12.20;99.90
17762;DHT22;9005;48.838;10.112;2023-08-06T14:15:17;12.30;99.90
17762;DHT22;9005;48.838;10.112;2023-08-06T14:17:43;12.30;99.90
17762;DHT22;9005;48.838;10.112;2023-08-06T14:20:11;12.40;99.90
17762;DHT22;9005;48.838;10.112;2023-08-06T14:22:38;12.30;99.90
17762;DHT22;9005;48.838;10.112;2023-08-06T14:25:07;12.30;99.90
17762;DHT22;9005;48.838;10.112;2023-08-06T14:27:33;12.40;99.90
17762;DHT22;9005;48.838;10.112;2023-08-06T14:30:00;12.30;99.90
17762;DHT22;9005;48.838;10.112;2023-08-06T14:32:28;12.30;99.90
17762;DHT22;9005;48.838;10.112;2023-08-06T14:34:55;12.30;99.90
17762;DHT22;9005;48.838;10.112;2023-08-06T14:37:23;12.30;99.90
17762;DHT22;9005;48.838;10.112;2023-08-06T14:39:49;12.30;99.90
17762;DHT22;9005;48.838;10.112;2023-08-06T14:42:18;12.30;99.90
17762;DHT22;9005;48.838;10.112;2023-08-06T14:44:44;12.30;99.90
17762;DHT22;9005;48.838;10.112;2023-08-06T14:47:11;12.30;99.90
17762;DHT22;9005;48.838;10.112;2023-08-06T14:49:38;12.30;99.90
17762;DHT22;9005;48.838;10.112;2023-08-06T14:52:06;12.20;99.90
17762;DHT22;9005;48.838;10.112;2023-08-06T14:54:33;12.20;99.90
17762;DHT22;9005;48.838;10.112;2023-08-06T14:56:59;12.20;99.90
17762;DHT22;9005;48.838;10.112;2023-08-06T14:59:27;12.20;99.90
17762;DHT22;9005;48.838;10.112;2023-08-06T15:01:54;12.20;99.90
17762;DHT22;9005;48.838;10.112;2023-08-06T15:04:21;12.20;99.90
17762;DHT22;9005;48.838;10.112;2023-08-06T15:06:49;12.30;99.90
17762;DHT22;9005;48.838;10.112;2023-08-06T15:09:16;12.30;99.90
17762;DHT22;9005;48.838;10.112;2023-08-06T15:11:43;12.40;99.90
17762;DHT22;9005;48.838;10.112;2023-08-06T15:14:09;12.30;99.90
17762;DHT22;9005;48.838;10.112;2023-08-06T15:16:38;12.20;99.90
17762;DHT22;9005;48.838;10.112;2023-08-06T15:19:05;12.20;99.90
17762;DHT22;9005;48.838;10.112;2023-08-06T15:21:31;12.20;99.90
17762;DHT22;9005;48.838;10.112;2023-08-06T15:23:59;12.20;99.90
17762;DHT22;9005;48.838;10.112;2023-08-06T15:26:27;12.10;99.90
17762;DHT22;9005;48.838;10.112;2023-08-06T15:28:54;12.00;99.90
17762;DHT22;9005;48.838;10.112;2023-08-06T15:31:22;12.00;99.90